Time;durP1;ratioP1;P1;durP2;ratioP2;P2;SDS_P1;SDS_P2;PMS_P1;PMS_P2;Temp;Humidity;BMP_temperature;BMP_pressure;BME280_temperature;BME280_humidity;BME280_pressure;Samples;Min_cycle;Max_cycle;Signal;HPM_P1;HPM_P2
2022/08/27 00:00:12;;;;;;;;;;;;;;;17.34;99.98;96704.19;30001;982;1881;-60
2022/08/27 00:00:43;;;;;;;;;;;;;;;17.34;99.86;96698.69;30001;982;1885;-62
2022/08/27 00:01:15;;;;;;;;;;;;;;;17.34;100.00;96701.44;30001;982;1881;-61
2022/08/27 00:01:46;;;;;;;;;;;;;;;17.35;100.00;96700.31;30001;982;1886;-62
2022/08/27 00:02:17;;;;;;;;;;;;;;;17.35;100.00;96694.81;30001;982;1881;-62
2022/08/27 00:02:48;;;;;;;;;;;;;;;17.35;100.00;96700.31;30001;983;1863;-62
2022/08/27 00:03:19;;;;;;;;;;;;;;;17.36;100.00;96699.16;30001;983;1876;-61
2022/08/27 00:03:52;;;;;;;;;;;;;;;17.35;100.00;96700.31;30002;801;1015;-62
2022/08/27 00:04:23;;;;;;;;;;;;;;;17.34;100.00;96695.16;30001;983;1881;-62
2022/08/27 00:04:54;;;;;;;;;;;;;;;17.34;100.00;96698.69;30001;983;1885;-61
2022/08/27 00:05:24;;;;;;;;;;;;;;;17.34;100.00;96700.66;30001;983;1881;-61
2022/08/27 00:05:55;;;;;;;;;;;;;;;17.34;100.00;96698.69;30001;983;1885;-62
2022/08/27 00:06:26;;;;;;;;;;;;;;;17.34;100.00;96704.19;30001;983;1881;-62
2022/08/27 00:06:57;;;;;;;;;;;;;;;17.34;100.00;96703.38;30001;983;1885;-61
2022/08/27 00:07:28;;;;;;;;;;;;;;;17.35;100.00;96699.50;30001;983;1859;-62
2022/08/27 00:07:59;;;;;;;;;;;;;;;17.34;100.00;96698.69;30001;982;1881;-62
2022/08/27 00:08:30;;;;;;;;;;;;;;;17.34;100.00;96706.94;30001;982;1856;-61
2022/08/27 00:09:01;;;;;;;;;;;;;;;17.34;100.00;96698.69;30001;982;1885;-61
2022/08/27 00:09:33;;;;;;;;;;;;;;;17.32;100.00;96701.00;30001;982;1881;-62
2022/08/27 00:10:07;;;;;;;;;;;;;;;17.32;100.00;96703.75;30001;983;1863;-62
2022/08/27 00:10:39;;;;;;;;;;;;;;;17.33;100.00;96701.78;30001;983;1876;-61
2022/08/27 00:11:11;;;;;;;;;;;;;;;17.32;100.00;96701.00;30001;983;1885;-62
2022/08/27 00:11:41;;;;;;;;;;;;;;;17.30;100.00;96697.81;30001;983;1880;-62
2022/08/27 00:12:12;;;;;;;;;;;;;;;17.28;100.00;96694.59;30001;983;1885;-63
2022/08/27 00:12:44;;;;;;;;;;;;;;;17.29;100.00;96698.94;30001;983;1881;-62
2022/08/27 00:13:15;;;;;;;;;;;;;;;17.29;100.00;96701.69;30001;983;1885;-61
2022/08/27 00:13:47;;;;;;;;;;;;;;;17.29;100.00;96695.41;30001;983;1881;-61
2022/08/27 00:14:18;;;;;;;;;;;;;;;17.28;100.00;96700.09;30001;983;1885;-61
2022/08/27 00:14:48;;;;;;;;;;;;;;;17.29;100.00;96700.87;30001;983;1881;-62
2022/08/27 00:15:20;;;;;;;;;;;;;;;17.28;100.00;96699.28;30001;982;1863;-62
2022/08/27 00:15:51;;;;;;;;;;;;;;;17.26;100.00;96696.88;30001;982;1877;-63
2022/08/27 00:16:23;;;;;;;;;;;;;;;17.27;100.00;96695.75;30001;982;1802;-61
2022/08/27 00:16:54;;;;;;;;;;;;;;;17.26;100.00;96699.63;30001;982;1881;-61
2022/08/27 00:17:25;;;;;;;;;;;;;;;17.25;100.00;96692.53;30001;982;1886;-61
2022/08/27 00:17:56;;;;;;;;;;;;;;;17.25;100.00;96694.47;30001;983;1880;-61
2022/08/27 00:18:27;;;;;;;;;;;;;;;17.25;100.00;96698.03;30001;983;1885;-61
2022/08/27 00:18:58;;;;;;;;;;;;;;;17.25;100.00;96699.97;30001;985;1881;-62
2022/08/27 00:19:29;;;;;;;;;;;;;;;17.25;100.00;96694.47;30001;983;1885;-61
2022/08/27 00:20:00;;;;;;;;;;;;;;;17.24;100.00;96699.16;30001;985;1872;-61
2022/08/27 00:20:31;;;;;;;;;;;;;;;17.25;100.00;96697.22;30001;983;1863;-62
2022/08/27 00:21:03;;;;;;;;;;;;;;;17.25;100.00;96695.28;30001;983;1876;-62
2022/08/27 00:21:35;;;;;;;;;;;;;;;17.24;100.00;96699.16;30001;983;1885;-62
2022/08/27 00:22:06;;;;;;;;;;;;;;;17.23;100.00;96694.81;30001;983;1881;-63
2022/08/27 00:22:37;;;;;;;;;;;;;;;17.23;100.00;96708.53;30001;983;1885;-60
2022/08/27 00:23:09;;;;;;;;;;;;;;;17.23;100.00;96697.56;30001;982;1859;-61
2022/08/27 00:23:40;;;;;;;;;;;;;;;17.23;100.00;96700.31;30001;982;1881;-62
2022/08/27 00:24:11;;;;;;;;;;;;;;;17.24;100.00;96701.09;30001;986;1859;-62
2022/08/27 00:24:42;;;;;;;;;;;;;;;17.22;100.00;96695.97;30001;982;1881;-62
2022/08/27 00:25:13;;;;;;;;;;;;;;;17.20;100.00;96698.25;30001;983;1880;-62
2022/08/27 00:25:44;;;;;;;;;;;;;;;17.20;100.00;96706.47;30001;983;1885;-60
2022/08/27 00:26:15;;;;;;;;;;;;;;;17.19;100.00;96702.13;30001;983;1880;-60
2022/08/27 00:26:46;;;;;;;;;;;;;;;17.20;100.00;96700.19;30001;983;1885;-62
2022/08/27 00:27:17;;;;;;;;;;;;;;;17.20;100.00;96705.66;30001;983;1881;-61
2022/08/27 00:27:48;;;;;;;;;;;;;;;17.19;100.00;96698.59;30001;983;1885;-62
2022/08/27 00:28:20;;;;;;;;;;;;;;;17.18;100.00;96697.78;30001;983;1881;-62
2022/08/27 00:28:51;;;;;;;;;;;;;;;17.18;100.00;96700.53;30001;983;1885;-61
2022/08/27 00:29:25;;;;;;;;;;;;;;;17.17;100.00;96695.38;30001;983;1859;-62
2022/08/27 00:29:56;;;;;;;;;;;;;;;17.16;100.00;96694.56;30001;982;1859;-61
2022/08/27 00:30:27;;;;;;;;;;;;;;;17.16;100.00;96694.56;30001;982;1814;-61
2022/08/27 00:30:59;;;;;;;;;;;;;;;17.17;100.00;96703.59;30001;982;1885;-62
2022/08/27 00:31:31;;;;;;;;;;;;;;;17.14;100.00;96699.59;30001;982;1881;-61
2022/08/27 00:32:02;;;;;;;;;;;;;;;17.16;100.00;96702.00;30001;982;1885;-62
2022/08/27 00:32:33;;;;;;;;;;;;;;;17.14;100.00;96705.09;30001;982;1881;-62
2022/08/27 00:33:04;;;;;;;;;;;;;;;17.15;100.00;96695.72;30001;983;1885;-62
2022/08/27 00:33:35;;;;;;;;;;;;;;;17.16;100.00;96704.75;30001;983;1880;-62
2022/08/27 00:34:09;;;;;;;;;;;;;;;17.15;100.00;96700.41;30001;983;1885;-61
2022/08/27 00:34:40;;;;;;;;;;;;;;;17.15;100.00;96700.41;30001;983;1859;-62
2022/08/27 00:35:12;;;;;;;;;;;;;;;17.14;100.00;96699.59;30001;983;1881;-64
2022/08/27 00:35:45;;;;;;;;;;;;;;;17.14;100.00;96699.59;30001;983;1881;-61
2022/08/27 00:36:16;;;;;;;;;;;;;;;17.13;100.00;96700.72;30001;983;1885;-61
2022/08/27 00:36:47;;;;;;;;;;;;;;;17.14;100.00;96704.28;30001;983;1881;-61
2022/08/27 00:37:18;;;;;;;;;;;;;;;17.14;100.00;96696.84;30001;982;1885;-61
2022/08/27 00:37:49;;;;;;;;;;;;;;;17.15;100.00;96700.41;30001;982;1859;-62
2022/08/27 00:38:21;;;;;;;;;;;;;;;17.14;100.00;96699.59;30001;982;1881;-60
2022/08/27 00:38:52;;;;;;;;;;;;;;;17.14;100.00;96699.59;30001;982;1881;-61
2022/08/27 00:39:26;;;;;;;;;;;;;;;17.15;100.00;96701.19;30001;982;1821;-61
2022/08/27 00:39:57;;;;;;;;;;;;;;;17.14;100.00;96699.59;30001;982;1881;-61
2022/08/27 00:40:28;;;;;;;;;;;;;;;17.13;100.00;96698.00;30001;983;1863;-60
2022/08/27 00:41:00;;;;;;;;;;;;;;;17.13;100.00;96697.19;30001;983;1876;-61
2022/08/27 00:41:32;;;;;;;;;;;;;;;17.13;100.00;96698.00;30001;983;1885;-61
2022/08/27 00:42:03;;;;;;;;;;;;;;;17.13;100.00;96699.94;30001;983;1881;-61
2022/08/27 00:42:34;;;;;;;;;;;;;;;17.13;100.00;96691.72;30001;983;1885;-61
2022/08/27 00:43:05;;;;;;;;;;;;;;;17.12;100.00;96696.41;30001;983;1881;-60
2022/08/27 00:43:44;;;;;;;;;;;;;;;17.12;100.00;96696.41;30001;983;1863;-61
2022/08/27 00:44:15;;;;;;;;;;;;;;;17.13;100.00;96697.19;30001;983;1876;-61
2022/08/27 00:44:46;;;;;;;;;;;;;;;17.13;100.00;96692.50;30001;982;1885;-61
2022/08/27 00:45:20;;;;;;;;;;;;;;;17.13;100.00;96698.00;30001;982;1881;-61
2022/08/27 00:45:53;;;;;;;;;;;;;;;17.13;100.00;96698.00;30001;982;1885;-61
2022/08/27 00:46:40;;;;;;;;;;;;;;;17.13;100.00;96698.00;30001;982;1881;-62
2022/08/27 00:47:14;;;;;;;;;;;;;;;17.14;100.00;96696.06;30001;982;1886;-61
2022/08/27 00:47:47;;;;;;;;;;;;;;;17.13;100.00;96695.25;30001;982;1881;-61
2022/08/27 00:48:20;;;;;;;;;;;;;;;17.13;100.00;96692.50;30001;983;1885;-60
2022/08/27 00:48:53;;;;;;;;;;;;;;;17.13;100.00;96695.25;30001;983;1859;-61
2022/08/27 00:49:26;;;;;;;;;;;;;;;17.14;100.00;96701.53;30001;983;1880;-61
2022/08/27 00:50:00;;;;;;;;;;;;;;;17.14;100.00;96694.13;30001;983;1881;-61
2022/08/27 00:50:34;;;;;;;;;;;;;;;17.14;100.00;96694.13;30001;983;1885;-62
2022/08/27 00:51:05;;;;;;;;;;;;;;;17.16;100.00;96691.03;30001;983;1881;-59
2022/08/27 00:51:37;;;;;;;;;;;;;;;17.16;100.00;96691.03;30001;983;1885;-60
2022/08/27 00:52:40;;;;;;;;;;;;;;;17.15;100.00;96701.19;30001;982;1881;-61
2022/08/27 00:53:12;;;;;;;;;;;;;;;17.17;100.00;96692.63;30001;982;1881;-61
2022/08/27 00:53:43;;;;;;;;;;;;;;;17.17;100.00;96690.69;30001;982;1859;-60
2022/08/27 00:54:18;;;;;;;;;;;;;;;17.17;100.00;96693.44;30001;982;1881;-61
2022/08/27 00:54:51;;;;;;;;;;;;;;;17.16;100.00;96688.28;30001;982;1881;-61
2022/08/27 00:55:27;;;;;;;;;;;;;;;17.17;100.00;96687.16;30001;982;1886;-61
2022/08/27 00:56:09;;;;;;;;;;;;;;;17.18;100.00;96692.28;30001;983;1859;-60
2022/08/27 00:56:43;;;;;;;;;;;;;;;17.17;100.00;96693.44;30001;983;1880;-60
2022/08/27 00:57:14;;;;;;;;;;;;;;;17.18;100.00;96686.00;30001;983;1881;-60
2022/08/27 00:57:48;;;;;;;;;;;;;;;17.19;100.00;96695.84;30001;983;1885;-61
2022/08/27 00:58:30;;;;;;;;;;;;;;;17.19;100.00;96693.09;30001;983;1881;-61
2022/08/27 00:59:02;;;;;;;;;;;;;;;17.21;100.00;96691.63;30001;983;1863;-61
2022/08/27 00:59:33;;;;;;;;;;;;;;;17.21;100.00;96688.06;30001;983;1855;-61
2022/08/27 01:00:06;;;;;;;;;;;;;;;17.21;100.00;96688.88;30001;982;1885;-60
2022/08/27 01:00:37;;;;;;;;;;;;;;;17.22;100.00;96693.22;30001;982;1881;-61
2022/08/27 01:01:11;;;;;;;;;;;;;;;17.23;100.00;96689.34;30001;982;1885;-60
2022/08/27 01:02:32;;;;;;;;;;;;;;;17.24;100.00;96695.63;30001;983;1885;-60
2022/08/27 01:03:03;;;;;;;;;;;;;;;17.24;100.00;96695.63;30001;983;1880;-64
2022/08/27 01:03:34;;;;;;;;;;;;;;;17.25;100.00;96692.53;30001;983;1885;-60
2022/08/27 01:04:05;;;;;;;;;;;;;;;17.25;100.00;96691.75;30001;983;1859;-61
2022/08/27 01:04:37;;;;;;;;;;;;;;;17.27;100.00;96697.69;30001;983;1880;-63
2022/08/27 01:05:10;;;;;;;;;;;;;;;17.27;100.00;96695.75;30001;983;1881;-62
2022/08/27 01:05:42;;;;;;;;;;;;;;;17.28;100.00;96694.59;30001;983;1885;-61
2022/08/27 01:06:15;;;;;;;;;;;;;;;17.27;100.00;96695.75;30001;983;1881;-62
2022/08/27 01:06:46;;;;;;;;;;;;;;;17.30;100.00;96691.53;30001;983;1885;-60
2022/08/27 01:07:17;;;;;;;;;;;;;;;17.30;100.00;96695.06;30001;982;1881;-61
2022/08/27 01:07:50;;;;;;;;;;;;;;;17.30;100.00;96695.06;30001;982;1885;-61
2022/08/27 01:08:23;;;;;;;;;;;;;;;17.32;100.00;96697.47;30001;982;1881;-61
2022/08/27 01:09:04;;;;;;;;;;;;;;;17.34;100.00;96693.22;30001;982;1864;-63
2022/08/27 01:09:36;;;;;;;;;;;;;;;17.35;100.00;96696.75;30001;982;1773;-61
2022/08/27 01:10:10;;;;;;;;;;;;;;;17.35;100.00;96689.34;30002;808;1015;-60
2022/08/27 01:10:41;;;;;;;;;;;;;;;17.33;100.00;96686.13;30001;983;1880;-60
2022/08/27 01:11:13;;;;;;;;;;;;;;;17.33;100.00;96691.63;30001;983;1885;-61
2022/08/27 01:11:46;;;;;;;;;;;;;;;17.33;100.00;96699.84;30001;983;1881;-61
2022/08/27 01:12:17;;;;;;;;;;;;;;;17.32;100.00;96690.03;30002;814;1015;-61
2022/08/27 01:12:51;;;;;;;;;;;;;;;17.32;100.00;96692.78;30001;983;1881;-61
2022/08/27 01:13:26;;;;;;;;;;;;;;;17.31;100.00;96688.44;30001;983;1885;-60
2022/08/27 01:13:57;;;;;;;;;;;;;;;17.31;100.00;96682.97;30001;983;1881;-61
2022/08/27 01:14:28;;;;;;;;;;;;;;;17.30;100.00;96688.78;30001;983;1863;-61
2022/08/27 01:15:00;;;;;;;;;;;;;;;17.31;100.00;96690.38;30001;982;1876;-61
2022/08/27 01:15:33;;;;;;;;;;;;;;;17.31;100.00;96693.13;30001;982;1885;-61
2022/08/27 01:16:06;;;;;;;;;;;;;;;17.30;100.00;96686.84;30001;982;1859;-61
2022/08/27 01:16:42;;;;;;;;;;;;;;;17.30;100.00;96691.53;30001;982;1881;-60
2022/08/27 01:17:15;;;;;;;;;;;;;;;17.28;100.00;96683.63;30001;983;1880;-59
2022/08/27 01:17:47;;;;;;;;;;;;;;;17.29;100.00;96687.97;30001;983;1885;-61
2022/08/27 01:18:18;;;;;;;;;;;;;;;17.30;100.00;96683.28;30001;983;1880;-61
2022/08/27 01:18:50;;;;;;;;;;;;;;;17.31;100.00;96684.91;30001;983;1885;-61
2022/08/27 01:19:34;;;;;;;;;;;;;;;17.31;100.00;96677.47;30001;983;1881;-63
2022/08/27 01:20:08;;;;;;;;;;;;;;;17.31;100.00;96682.16;30001;983;1885;-60
2022/08/27 01:20:44;;;;;;;;;;;;;;;17.31;100.00;96682.97;30001;983;1881;-63
2022/08/27 01:21:35;;;;;;;;;;;;;;;17.32;100.00;96684.56;30001;983;1863;-60
2022/08/27 01:22:37;;;;;;;;;;;;;;;17.32;100.00;96683.75;30001;983;1855;-60
2022/08/27 01:23:21;;;;;;;;;;;;;;;17.32;100.00;96678.28;30001;982;1784;-61
2022/08/27 01:23:57;;;;;;;;;;;;;;;17.32;100.00;96679.06;30001;982;1881;-61
2022/08/27 01:24:39;;;;;;;;;;;;;;;17.32;100.00;96681.03;30001;982;1886;-60
2022/08/27 01:25:12;;;;;;;;;;;;;;;17.30;100.00;96678.63;30001;983;1880;-60
2022/08/27 01:25:43;;;;;;;;;;;;;;;17.31;100.00;96682.97;30001;983;1885;-61
2022/08/27 01:26:15;;;;;;;;;;;;;;;17.31;100.00;96671.19;30001;983;1881;-61
2022/08/27 01:26:46;;;;;;;;;;;;;;;17.31;100.00;96671.19;30001;983;1885;-61
2022/08/27 01:27:20;;;;;;;;;;;;;;;17.30;100.00;96675.06;30001;983;1859;-61
2022/08/27 01:27:52;;;;;;;;;;;;;;;17.29;100.00;96668.78;30001;983;1881;-60
2022/08/27 01:28:24;;;;;;;;;;;;;;;17.27;100.00;96665.59;30001;983;1881;-61
2022/08/27 01:28:55;;;;;;;;;;;;;;;17.27;100.00;96676.56;30001;983;1885;-60
2022/08/27 01:29:26;;;;;;;;;;;;;;;17.26;100.00;96669.47;30001;982;1881;-60
2022/08/27 01:29:57;;;;;;;;;;;;;;;17.26;100.00;96672.22;30001;982;1885;-60
2022/08/27 01:30:28;;;;;;;;;;;;;;;17.24;100.00;96671.75;30001;982;1881;-61
2022/08/27 01:30:59;;;;;;;;;;;;;;;17.24;100.00;96671.75;30001;982;1885;-61
2022/08/27 01:31:30;;;;;;;;;;;;;;;17.24;100.00;96671.75;30001;983;1880;-60
2022/08/27 01:32:07;;;;;;;;;;;;;;;17.24;100.00;96666.25;30001;983;1863;-60
2022/08/27 01:32:38;;;;;;;;;;;;;;;17.25;100.00;96669.81;30001;983;1876;-61
2022/08/27 01:33:13;;;;;;;;;;;;;;;17.24;100.00;96670.94;30001;983;1885;-61
2022/08/27 01:34:13;;;;;;;;;;;;;;;17.24;100.00;96670.94;30001;983;1881;-60
2022/08/27 01:34:45;;;;;;;;;;;;;;;17.23;100.00;96670.16;30001;983;1881;-60
2022/08/27 01:35:16;;;;;;;;;;;;;;;17.22;100.00;96679.50;30001;983;1881;-60
2022/08/27 01:35:48;;;;;;;;;;;;;;;17.21;100.00;96668.88;30001;983;1885;-61
2022/08/27 01:36:19;;;;;;;;;;;;;;;17.19;100.00;96669.22;30001;983;1881;-60
2022/08/27 01:36:53;;;;;;;;;;;;;;;17.20;100.00;96668.09;30001;982;1885;-60
2022/08/27 01:37:25;;;;;;;;;;;;;;;17.19;100.00;96663.75;30001;982;1859;-60
2022/08/27 01:37:57;;;;;;;;;;;;;;;17.19;100.00;96671.16;30001;982;1881;-60
2022/08/27 01:38:28;;;;;;;;;;;;;;;17.18;100.00;96666.81;30001;982;1881;-61
2022/08/27 01:39:00;;;;;;;;;;;;;;;17.17;100.00;96674.25;30001;983;1885;-60
2022/08/27 01:39:35;;;;;;;;;;;;;;;17.16;100.00;96667.16;30001;983;1880;-62
2022/08/27 01:40:07;;;;;;;;;;;;;;;17.16;100.00;96669.09;30001;983;1885;-61
2022/08/27 01:40:39;;;;;;;;;;;;;;;17.16;100.00;96669.91;30001;983;1880;-61
2022/08/27 01:41:10;;;;;;;;;;;;;;;17.16;100.00;96669.91;30001;983;1885;-61
2022/08/27 01:41:41;;;;;;;;;;;;;;;17.15;100.00;96668.31;30001;983;1881;-61
2022/08/27 01:42:27;;;;;;;;;;;;;;;17.15;100.00;96668.31;30001;983;1885;-60
2022/08/27 01:42:58;;;;;;;;;;;;;;;17.14;100.00;96674.94;30001;983;1859;-60
2022/08/27 01:43:30;;;;;;;;;;;;;;;17.14;100.00;96663.16;30001;983;1881;-61
2022/08/27 01:44:01;;;;;;;;;;;;;;;17.12;100.00;96668.97;30001;983;1881;-60
2022/08/27 01:45:01;;;;;;;;;;;;;;;17.13;100.00;96672.53;30001;982;1885;-61
2022/08/27 01:45:33;;;;;;;;;;;;;;;17.11;100.00;96670.13;30001;982;1855;-60
2022/08/27 01:46:05;;;;;;;;;;;;;;;17.11;100.00;96678.34;30001;982;1881;-60
2022/08/27 01:46:37;;;;;;;;;;;;;;;17.09;100.00;96667.72;30001;983;1880;-61
2022/08/27 01:47:08;;;;;;;;;;;;;;;17.10;100.00;96671.25;30001;983;1884;-60
2022/08/27 01:47:42;;;;;;;;;;;;;;;17.08;100.00;96673.53;30001;983;1880;-61
2022/08/27 01:48:14;;;;;;;;;;;;;;;17.08;100.00;96673.53;30001;983;1885;-61
2022/08/27 01:48:45;;;;;;;;;;;;;;;17.07;100.00;96669.19;30001;983;1881;-60
2022/08/27 01:49:16;;;;;;;;;;;;;;;17.08;100.00;96666.12;30001;983;1885;-60
2022/08/27 01:49:48;;;;;;;;;;;;;;;17.09;100.00;96669.66;30001;983;1881;-61
2022/08/27 01:50:21;;;;;;;;;;;;;;;17.10;100.00;96671.25;30001;983;1885;-61
2022/08/27 01:50:52;;;;;;;;;;;;;;;17.10;100.00;96668.53;30001;983;1859;-61
2022/08/27 01:51:22;;;;;;;;;;;;;;;17.10;100.00;96671.25;30001;983;1881;-60
2022/08/27 01:51:53;;;;;;;;;;;;;;;17.08;100.00;96673.53;30001;982;1881;-60
2022/08/27 01:52:26;;;;;;;;;;;;;;;17.08;100.00;96674.34;30001;982;1885;-61
2022/08/27 01:53:00;;;;;;;;;;;;;;;17.07;100.00;96671.94;30001;982;1881;-61
2022/08/27 01:53:31;;;;;;;;;;;;;;;17.07;100.00;96671.94;30001;982;1864;-60
2022/08/27 01:54:02;;;;;;;;;;;;;;;17.06;100.00;96673.06;30001;982;1877;-61
2022/08/27 01:54:33;;;;;;;;;;;;;;;17.04;100.00;96667.94;30001;983;1885;-61
2022/08/27 01:55:07;;;;;;;;;;;;;;;17.05;100.00;96674.22;30001;983;1880;-60
2022/08/27 01:55:38;;;;;;;;;;;;;;;17.04;100.00;96678.09;30001;983;1863;-60
2022/08/27 01:56:10;;;;;;;;;;;;;;;17.03;100.00;96673.75;30001;983;1876;-61
2022/08/27 01:56:41;;;;;;;;;;;;;;;17.03;100.00;96671.81;30001;983;1885;-60
2022/08/27 01:57:12;;;;;;;;;;;;;;;17.02;100.00;96674.88;30001;983;1881;-61
2022/08/27 01:57:43;;;;;;;;;;;;;;;17.02;100.00;96674.88;30001;983;1863;-60
2022/08/27 01:58:15;;;;;;;;;;;;;;;17.01;100.00;96676.84;30001;983;1876;-61
2022/08/27 01:58:46;;;;;;;;;;;;;;;17.01;100.00;96679.56;30001;982;1885;-61
2022/08/27 01:59:16;;;;;;;;;;;;;;;16.99;100.00;96676.38;30001;982;1881;-62
2022/08/27 01:59:48;;;;;;;;;;;;;;;16.99;100.00;96675.56;30001;982;1885;-61
2022/08/27 02:00:21;;;;;;;;;;;;;;;16.99;100.00;96676.38;30001;982;1881;-63
2022/08/27 02:00:55;;;;;;;;;;;;;;;17.01;100.00;96673.28;30001;982;1886;-61
2022/08/27 02:01:26;;;;;;;;;;;;;;;16.99;100.00;96667.34;30001;982;1881;-61
2022/08/27 02:02:01;;;;;;;;;;;;;;;17.00;100.00;96671.69;30001;983;1885;-61
2022/08/27 02:02:32;;;;;;;;;;;;;;;17.00;100.00;96671.69;30001;983;1859;-61
2022/08/27 02:03:05;;;;;;;;;;;;;;;17.01;100.00;96676.84;30001;983;1880;-61
2022/08/27 02:03:36;;;;;;;;;;;;;;;17.01;100.00;96678.78;30001;983;1881;-61
2022/08/27 02:04:08;;;;;;;;;;;;;;;17.02;100.00;96674.88;30001;983;1885;-60
2022/08/27 02:04:39;;;;;;;;;;;;;;;17.01;100.00;96667.81;30001;983;1881;-61
2022/08/27 02:05:10;;;;;;;;;;;;;;;17.01;100.00;96673.28;30001;983;1885;-60
2022/08/27 02:05:42;;;;;;;;;;;;;;;17.02;100.00;96672.94;30001;983;1881;-60
2022/08/27 02:06:13;;;;;;;;;;;;;;;17.02;100.00;96670.22;30001;982;1863;-60
2022/08/27 02:06:45;;;;;;;;;;;;;;;17.03;100.00;96673.75;30001;982;1877;-61
2022/08/27 02:07:17;;;;;;;;;;;;;;;17.03;100.00;96671.81;30001;982;1885;-60
2022/08/27 02:07:48;;;;;;;;;;;;;;;17.03;100.00;96665.53;30001;967;1887;-59
2022/08/27 02:08:20;;;;;;;;;;;;;;;17.04;100.00;96672.59;30001;982;1886;-60
2022/08/27 02:08:51;;;;;;;;;;;;;;;17.03;100.00;96671.81;30001;982;1881;-61
2022/08/27 02:09:22;;;;;;;;;;;;;;;17.04;100.00;96669.87;30001;983;1799;-60
2022/08/27 02:09:53;;;;;;;;;;;;;;;17.05;100.00;96674.22;30001;983;1880;-61
2022/08/27 02:10:25;;;;;;;;;;;;;;;17.05;100.00;96672.28;30001;983;1885;-61
2022/08/27 02:10:57;;;;;;;;;;;;;;;17.06;100.00;96659.38;30001;983;1859;-61
2022/08/27 02:11:28;;;;;;;;;;;;;;;17.07;100.00;96672.72;30001;983;1880;-60
2022/08/27 02:12:02;;;;;;;;;;;;;;;17.08;100.00;96663.37;30001;971;1900;-61
2022/08/27 02:12:33;;;;;;;;;;;;;;;17.08;100.00;96670.78;30001;983;1885;-61
2022/08/27 02:13:07;;;;;;;;;;;;;;;17.08;100.00;96668.06;30001;983;1881;-61
2022/08/27 02:13:38;;;;;;;;;;;;;;;17.08;100.00;96668.84;30001;982;1863;-60
2022/08/27 02:14:09;;;;;;;;;;;;;;;17.09;100.00;96666.91;30001;982;1876;-60
2022/08/27 02:14:40;;;;;;;;;;;;;;;17.11;100.00;96672.06;30001;982;1885;-60
2022/08/27 02:15:11;;;;;;;;;;;;;;;17.11;100.00;96667.38;30001;982;1881;-59
2022/08/27 02:15:42;;;;;;;;;;;;;;;17.11;100.00;96666.56;30001;982;1885;-61
2022/08/27 02:16:13;;;;;;;;;;;;;;;17.11;100.00;96667.38;30001;983;1880;-60
2022/08/27 02:16:45;;;;;;;;;;;;;;;17.10;100.00;96665.78;30001;983;1884;-60
2022/08/27 02:17:16;;;;;;;;;;;;;;;17.12;100.00;96668.19;30001;983;1880;-60
2022/08/27 02:17:47;;;;;;;;;;;;;;;17.11;100.00;96664.63;30001;983;1885;-60
2022/08/27 02:18:17;;;;;;;;;;;;;;;17.12;100.00;96668.97;30001;983;1880;-59
2022/08/27 02:18:48;;;;;;;;;;;;;;;17.12;100.00;96668.97;30001;983;1863;-60
2022/08/27 02:19:20;;;;;;;;;;;;;;;17.13;100.00;96676.06;30001;983;1876;-60
2022/08/27 02:19:52;;;;;;;;;;;;;;;17.13;100.00;96673.31;30001;983;1885;-60
2022/08/27 02:20:23;;;;;;;;;;;;;;;17.13;100.00;96665.09;30001;983;1881;-61
2022/08/27 02:20:54;;;;;;;;;;;;;;;17.14;100.00;96668.63;30001;983;1863;-60
2022/08/27 02:21:25;;;;;;;;;;;;;;;17.14;100.00;96672.19;30001;982;1876;-60
2022/08/27 02:21:59;;;;;;;;;;;;;;;17.14;100.00;96665.91;30001;976;1903;-60
2022/08/27 02:22:30;;;;;;;;;;;;;;;17.14;100.00;96672.19;30001;982;1881;-60
2022/08/27 02:23:01;;;;;;;;;;;;;;;17.14;100.00;96672.19;30001;982;1886;-61
2022/08/27 02:23:31;;;;;;;;;;;;;;;17.15;100.00;96671.03;30001;983;1880;-61
2022/08/27 02:24:02;;;;;;;;;;;;;;;17.16;100.00;96669.91;30001;983;1863;-60
2022/08/27 02:24:33;;;;;;;;;;;;;;;17.17;100.00;96666.03;30001;983;1876;-60
2022/08/27 02:25:05;;;;;;;;;;;;;;;17.19;100.00;96665.69;30001;983;1885;-60
2022/08/27 02:25:37;;;;;;;;;;;;;;;17.19;100.00;96671.97;30001;983;1858;-61
2022/08/27 02:26:08;;;;;;;;;;;;;;;17.21;100.00;96666.94;30001;983;1880;-60
2022/08/27 02:26:40;;;;;;;;;;;;;;;17.22;100.00;96665.81;30001;988;1880;-60
2022/08/27 02:27:11;;;;;;;;;;;;;;;17.23;100.00;96669.34;30001;983;1885;-60
2022/08/27 02:27:42;;;;;;;;;;;;;;;17.23;100.00;96664.66;30001;983;1881;-60
2022/08/27 02:28:14;;;;;;;;;;;;;;;17.23;100.00;96675.63;30001;983;1885;-60
2022/08/27 02:28:45;;;;;;;;;;;;;;;17.22;100.00;96671.28;30001;982;1881;-60
2022/08/27 02:29:19;;;;;;;;;;;;;;;17.24;100.00;96676.44;30001;982;1885;-61
2022/08/27 02:29:50;;;;;;;;;;;;;;;17.23;100.00;96670.16;30001;982;1881;-59
2022/08/27 02:30:23;;;;;;;;;;;;;;;17.24;100.00;96677.22;30001;982;1885;-60
2022/08/27 02:30:54;;;;;;;;;;;;;;;17.23;100.00;96672.09;30001;982;1859;-60
2022/08/27 02:31:24;;;;;;;;;;;;;;;17.24;100.00;96670.94;30001;983;1880;-60
2022/08/27 02:31:55;;;;;;;;;;;;;;;17.23;100.00;96670.16;30001;983;1880;-60
2022/08/27 02:32:27;;;;;;;;;;;;;;;17.24;100.00;96665.47;30001;983;1885;-61
2022/08/27 02:32:59;;;;;;;;;;;;;;;17.23;100.00;96672.09;30001;983;1880;-60
2022/08/27 02:33:32;;;;;;;;;;;;;;;17.23;100.00;96669.34;30001;983;1863;-60
2022/08/27 02:34:03;;;;;;;;;;;;;;;17.22;100.00;96668.53;30001;983;1876;-59
2022/08/27 02:34:33;;;;;;;;;;;;;;;17.23;100.00;96664.66;30001;983;1885;-60
2022/08/27 02:35:05;;;;;;;;;;;;;;;17.23;100.00;96675.63;30001;983;1880;-60
2022/08/27 02:35:42;;;;;;;;;;;;;;;17.23;100.00;96672.88;30001;983;1885;-60
2022/08/27 02:36:13;;;;;;;;;;;;;;;17.23;100.00;96675.63;30001;982;1881;-60
2022/08/27 02:36:44;;;;;;;;;;;;;;;17.23;100.00;96670.16;30001;982;1863;-60
2022/08/27 02:37:15;;;;;;;;;;;;;;;17.24;100.00;96670.94;30001;982;1876;-61
2022/08/27 02:37:46;;;;;;;;;;;;;;;17.24;100.00;96673.69;30001;982;1885;-60
2022/08/27 02:38:18;;;;;;;;;;;;;;;17.24;100.00;96660.78;30002;982;1881;-60
2022/08/27 02:38:50;;;;;;;;;;;;;;;17.23;100.00;96670.16;30002;983;1863;-61
2022/08/27 02:39:20;;;;;;;;;;;;;;;17.24;100.00;96666.25;30002;983;1876;-59
2022/08/27 02:39:51;;;;;;;;;;;;;;;17.24;100.00;96665.47;30002;983;1885;-60
2022/08/27 02:40:23;;;;;;;;;;;;;;;17.24;100.00;96666.25;30002;983;1880;-60
2022/08/27 02:40:57;;;;;;;;;;;;;;;17.24;100.00;96671.75;30002;983;1885;-60
2022/08/27 02:41:28;;;;;;;;;;;;;;;17.25;100.00;96667.88;30002;983;1880;-61
2022/08/27 02:42:01;;;;;;;;;;;;;;;17.25;100.00;96665.13;30002;983;1885;-60
2022/08/27 02:42:31;;;;;;;;;;;;;;;17.23;100.00;96664.66;30002;983;1881;-61
2022/08/27 02:43:04;;;;;;;;;;;;;;;17.24;100.00;96666.25;30002;982;1885;-60
2022/08/27 02:43:35;;;;;;;;;;;;;;;17.23;100.00;96663.88;30002;982;1881;-60
2022/08/27 02:44:06;;;;;;;;;;;;;;;17.24;100.00;96665.47;30002;982;1863;-61
2022/08/27 02:44:38;;;;;;;;;;;;;;;17.23;100.00;96678.37;30002;982;1876;-60
2022/08/27 02:45:12;;;;;;;;;;;;;;;17.24;100.00;96670.94;30002;982;1885;-61
2022/08/27 02:45:43;;;;;;;;;;;;;;;17.23;100.00;96669.34;30002;982;1881;-60
2022/08/27 02:46:14;;;;;;;;;;;;;;;17.23;100.00;96670.16;30002;983;1884;-60
2022/08/27 02:46:45;;;;;;;;;;;;;;;17.24;100.00;96670.94;30002;983;1880;-60
2022/08/27 02:47:16;;;;;;;;;;;;;;;17.24;100.00;96676.44;30002;983;1885;-59
2022/08/27 02:47:47;;;;;;;;;;;;;;;17.22;100.00;96674.03;30002;983;1880;-61
2022/08/27 02:48:19;;;;;;;;;;;;;;;17.21;100.00;96672.44;30002;983;1885;-59
2022/08/27 02:48:50;;;;;;;;;;;;;;;17.21;100.00;96666.94;30002;983;1859;-60
2022/08/27 02:49:23;;;;;;;;;;;;;;;17.21;100.00;96668.88;30002;983;1881;-60
2022/08/27 02:49:54;;;;;;;;;;;;;;;17.21;100.00;96669.69;30002;983;1881;-59
2022/08/27 02:50:25;;;;;;;;;;;;;;;17.22;100.00;96675.97;30002;982;1885;-60
2022/08/27 02:50:56;;;;;;;;;;;;;;;17.21;100.00;96677.91;30002;982;1859;-59
2022/08/27 02:51:26;;;;;;;;;;;;;;;17.21;100.00;96666.94;30002;982;1881;-64
2022/08/27 02:51:57;;;;;;;;;;;;;;;17.22;100.00;96674.03;30002;982;1859;-59
2022/08/27 02:52:28;;;;;;;;;;;;;;;17.22;100.00;96676.78;30002;982;1881;-60